Time;durP1;ratioP1;P1;durP2;ratioP2;P2;SDS_P1;SDS_P2;PMS_P1;PMS_P2;Temp;Humidity;BMP_temperature;BMP_pressure;BME280_temperature;BME280_humidity;BME280_pressure;Samples;Min_cycle;Max_cycle;Signal;HPM_P1;HPM_P2
2022/12/08 00:01:33;;;;;;;23.10;13.93;;;;;;;8.08;100.00;95867.31;4956342;28;20083;-41
2022/12/08 00:04:03;;;;;;;23.08;13.35;;;;;;;8.08;100.00;95867.31;4956918;28;20081;-42
2022/12/08 00:09:23;;;;;;;20.50;13.25;;;;;;;7.81;100.00;95863.69;4953036;28;20086;-43
2022/12/08 00:11:56;;;;;;;19.80;12.52;;;;;;;7.79;100.00;95854.31;4957135;28;20099;-44
2022/12/08 00:14:27;;;;;;;23.02;13.60;;;;;;;7.92;100.00;95851.38;4955924;28;20534;-45
2022/12/08 00:16:55;;;;;;;20.02;12.82;;;;;;;8.00;100.00;95859.34;4951781;28;20078;-42
2022/12/08 00:19:24;;;;;;;20.65;13.60;;;;;;;8.05;100.00;95859.72;4951921;28;20079;-41
2022/12/08 00:21:53;;;;;;;21.45;13.82;;;;;;;8.01;100.00;95856.56;4951118;28;20083;-48
2022/12/08 00:24:23;;;;;;;20.20;12.60;;;;;;;7.93;100.00;95850.41;4956132;28;20085;-45
2022/12/08 00:26:52;;;;;;;;;;;;;;;7.93;100.00;95845.16;4953826;28;20115;-40
2022/12/08 00:29:20;;;;;;;22.90;13.18;;;;;;;7.97;100.00;95843.88;4957653;28;20004;-43
2022/12/08 00:31:48;;;;;;;22.00;13.25;;;;;;;7.77;100.00;95845.72;4952010;28;20082;-40
2022/12/08 00:34:17;;;;;;;19.63;13.32;;;;;;;7.55;100.00;95839.84;4955262;28;20070;-41
2022/12/08 00:36:45;;;;;;;23.92;14.52;;;;;;;7.77;100.00;95841.31;4955094;28;20098;-40
2022/12/08 00:39:15;;;;;;;19.42;13.15;;;;;;;7.80;100.00;95848.06;4952448;28;20483;-43
2022/12/08 00:44:30;;;;;;;19.92;13.63;;;;;;;7.85;100.00;95843.25;4954947;28;20480;-41
2022/12/08 00:46:59;;;;;;;20.55;12.95;;;;;;;7.78;100.00;95844.78;4956578;28;20093;-48
2022/12/08 00:49:27;;;;;;;20.00;13.93;;;;;;;7.79;100.00;95835.94;4949945;28;20083;-44
2022/12/08 00:51:55;;;;;;;25.30;13.77;;;;;;;7.24;100.00;95831.34;4961049;28;20039;-42
2022/12/08 00:54:23;;;;;;;21.77;13.18;;;;;;;7.45;100.00;95833.78;4950988;28;20531;-41
2022/12/08 00:56:53;;;;;;;19.75;12.82;;;;;;;7.54;100.00;95822.47;4956169;28;20154;-44
2022/12/08 00:59:21;;;;;;;21.03;13.43;;;;;;;7.57;100.00;95829.19;4957549;28;20090;-45
2022/12/08 01:01:50;;;;;;;21.90;13.95;;;;;;;7.61;100.00;95838.47;4948189;28;20095;-47
2022/12/08 01:04:19;;;;;;;20.92;13.45;;;;;;;7.55;100.00;95837.22;4954850;28;20091;-41
2022/12/08 01:06:48;;;;;;;22.13;13.52;;;;;;;7.59;100.00;95828.09;4953668;28;20081;-46
2022/12/08 01:09:17;;;;;;;18.70;13.43;;;;;;;7.57;100.00;95819.56;4950122;28;20569;-45
2022/12/08 01:11:46;;;;;;;19.25;12.98;;;;;;;7.63;100.00;95822.56;4952944;28;20079;-47
2022/12/08 01:14:15;;;;;;;19.58;13.38;;;;;;;7.70;100.00;95824.47;4948764;28;20332;-44
2022/12/08 01:16:44;;;;;;;22.67;14.17;;;;;;;7.72;100.00;95830.44;4948389;28;20083;-45
2022/12/08 01:19:15;;;;;;;22.92;14.23;;;;;;;7.78;100.00;95827.25;4951014;28;20082;-48
2022/12/08 01:21:45;;;;;;;20.42;13.13;;;;;;;7.60;100.00;95829.78;4951885;28;20086;-47
2022/12/08 01:24:15;;;;;;;19.65;13.25;;;;;;;7.65;100.00;95829.34;4948376;28;20079;-41
2022/12/08 01:26:43;;;;;;;21.10;13.25;;;;;;;7.75;100.00;95827.53;4948920;28;20087;-46
2022/12/08 01:29:12;;;;;;;22.90;13.85;;;;;;;7.79;100.00;95825.44;4951409;28;20079;-42
2022/12/08 01:31:41;;;;;;;22.58;13.35;;;;;;;7.83;100.00;95819.75;4950219;28;20087;-48
2022/12/08 01:34:10;;;;;;;21.83;13.68;;;;;;;7.85;100.00;95828.31;4950242;28;20478;-43
2022/12/08 01:36:39;;;;;;;22.05;14.38;;;;;;;7.84;100.00;95826.69;4950019;28;20481;-42
2022/12/08 01:39:09;;;;;;;24.00;14.57;;;;;;;7.69;100.00;95822.00;4949570;28;20569;-42
2022/12/08 01:41:38;;;;;;;25.13;13.67;;;;;;;7.51;100.00;95820.13;4952455;28;20075;-42
2022/12/08 01:44:39;;;;;;;22.38;12.27;;;;;;;7.43;100.00;95834.91;4949540;28;20521;-45
2022/12/08 01:47:09;;;;;;;19.85;12.85;;;;;;;7.53;100.00;95827.84;4949035;28;20078;-48
2022/12/08 01:49:38;;;;;;;20.45;13.32;;;;;;;7.52;100.00;95819.16;4949727;28;20087;-47
2022/12/08 01:52:10;;;;;;;23.48;13.75;;;;;;;7.52;100.00;95815.69;4953646;28;20079;-40
2022/12/08 01:54:42;;;;;;;20.63;12.82;;;;;;;7.59;100.00;95811.53;4945986;28;20102;-50
2022/12/08 01:57:12;;;;;;;20.80;12.80;;;;;;;7.56;100.00;95812.63;4943002;28;20472;-44
2022/12/08 01:59:44;;;;;;;19.73;12.40;;;;;;;7.50;100.00;95807.13;4949840;28;20082;-45
2022/12/08 02:02:14;;;;;;;20.52;13.20;;;;;;;7.45;100.00;95806.75;4950361;28;20086;-46
2022/12/08 02:04:42;;;;;;;19.88;13.15;;;;;;;7.47;100.00;95802.19;4950139;28;20087;-49
2022/12/08 02:07:12;;;;;;;21.02;13.50;;;;;;;7.48;100.00;95798.59;4947279;28;20610;-42
2022/12/08 02:09:41;;;;;;;21.95;13.52;;;;;;;7.49;100.00;95793.19;4949090;28;20384;-42
2022/12/08 02:12:10;;;;;;;20.70;13.23;;;;;;;7.49;100.00;95790.56;4945314;28;20106;-43
2022/12/08 02:14:38;;;;;;;20.60;13.02;;;;;;;7.45;100.00;95785.75;4948228;28;20211;-43
2022/12/08 02:17:19;;;;;;;19.20;13.10;;;;;;;7.45;100.00;95786.59;4947141;28;20078;-46
2022/12/08 02:20:15;;;;;;;23.02;13.57;;;;;;;7.24;100.00;95781.53;4950819;28;20059;-42
2022/12/08 02:22:50;;;;;;;21.90;13.23;;;;;;;7.23;100.00;95777.25;4944717;28;20091;-45
2022/12/08 02:25:26;;;;;;;19.80;13.07;;;;;;;7.20;100.00;95779.31;4944296;28;20079;-43
2022/12/08 02:28:02;;;;;;;21.52;12.63;;;;;;;7.10;100.00;95774.09;4950188;28;20541;-40
2022/12/08 02:30:35;;;;;;;22.92;12.82;;;;;;;6.97;100.00;95768.31;4951125;28;20078;-40
2022/12/08 02:33:27;;;;;;;21.05;12.88;;;;;;;6.81;100.00;95772.34;4950005;28;20078;-46
2022/12/08 02:35:59;;;;;;;21.65;13.60;;;;;;;6.80;100.00;95783.75;4948420;28;20106;-48
2022/12/08 02:38:36;;;;;;;21.83;12.52;;;;;;;6.84;100.00;95773.81;4948459;28;20087;-49
2022/12/08 02:41:16;;;;;;;18.23;12.23;;;;;;;6.75;100.00;95770.25;4949543;28;20079;-40
2022/12/08 02:43:47;;;;;;;22.58;12.80;;;;;;;6.76;100.00;95774.53;4946041;28;20089;-41
2022/12/08 02:46:19;;;;;;;20.30;12.18;;;;;;;6.66;100.00;95776.31;4949562;28;20075;-40
2022/12/08 02:48:48;;;;;;;22.70;13.25;;;;;;;6.80;100.00;95768.03;4946093;28;20086;-41
2022/12/08 02:51:18;;;;;;;20.70;12.68;;;;;;;6.74;100.00;95755.47;4949075;28;20646;-48
2022/12/08 02:53:47;;;;;;;21.05;13.52;;;;;;;6.78;100.00;95766.50;4949688;28;20124;-44
2022/12/08 02:56:38;;;;;;;19.35;12.93;;;;;;;6.77;100.00;95757.00;4953804;28;20089;-45
2022/12/08 02:59:21;;;;;;;23.40;14.30;;;;;;;6.80;100.00;95757.56;4949809;28;20082;-46
2022/12/08 03:02:00;;;;;;;23.30;13.68;;;;;;;6.85;100.00;95751.91;4971075;28;20103;-44
2022/12/08 03:04:35;;;;;;;20.50;13.50;;;;;;;6.85;100.00;95751.91;4950333;28;20078;-46
2022/12/08 03:07:08;;;;;;;22.13;13.35;;;;;;;6.64;100.00;95762.50;4957940;28;20074;-44
2022/12/08 03:09:39;;;;;;;18.75;12.82;;;;;;;6.72;100.00;95760.03;4946823;28;20071;-41
2022/12/08 03:12:14;;;;;;;20.42;13.23;;;;;;;6.78;100.00;95756.88;4949569;28;20087;-48
2022/12/08 03:14:46;;;;;;;20.83;12.98;;;;;;;6.78;100.00;95754.25;4953731;28;20039;-43
2022/12/08 03:17:17;;;;;;;22.67;13.70;;;;;;;6.57;100.00;95751.78;4952481;28;20079;-49
2022/12/08 03:19:46;;;;;;;21.73;13.00;;;;;;;6.75;100.00;95751.91;4960931;28;20511;-44
2022/12/08 03:22:17;;;;;;;21.60;13.30;;;;;;;6.88;100.00;95749.84;4953124;28;20470;-49
2022/12/08 03:24:46;;;;;;;22.95;13.40;;;;;;;6.91;100.00;95743.47;4956209;28;20554;-41
2022/12/08 03:27:17;;;;;;;19.48;12.50;;;;;;;6.88;100.00;95744.59;4949093;28;20099;-42
2022/12/08 03:29:46;;;;;;;19.35;12.85;;;;;;;6.97;100.00;95740.28;4952287;28;20510;-43
2022/12/08 03:32:22;;;;;;;19.38;12.32;;;;;;;6.97;100.00;95742.09;4951927;28;20070;-46
2022/12/08 03:34:51;;;;;;;21.23;13.05;;;;;;;6.94;100.00;95737.13;4960462;28;20079;-46
2022/12/08 03:37:21;;;;;;;22.45;13.63;;;;;;;6.95;100.00;95736.16;4953683;28;20079;-47
2022/12/08 03:39:49;;;;;;;22.63;14.55;;;;;;;6.94;100.00;95743.19;4958712;28;20071;-42
2022/12/08 03:42:17;;;;;;;21.50;13.63;;;;;;;6.95;100.00;95731.75;4957581;28;20085;-47
2022/12/08 03:44:46;;;;;;;23.13;13.25;;;;;;;7.01;100.00;95735.59;4955729;28;20692;-43
2022/12/08 03:47:14;;;;;;;22.83;13.05;;;;;;;7.09;100.00;95735.75;4957321;28;20077;-46
2022/12/08 03:49:42;;;;;;;25.40;14.07;;;;;;;6.96;100.00;95727.34;4954393;28;20075;-41
2022/12/08 03:52:10;;;;;;;23.70;13.55;;;;;;;7.11;100.00;95729.38;4961643;28;20446;-41
2022/12/08 03:54:40;;;;;;;20.38;12.95;;;;;;;6.82;100.00;95726.81;4954686;28;20073;-43
2022/12/08 03:57:09;;;;;;;18.73;12.65;;;;;;;6.37;100.00;95719.50;4960152;28;20081;-41
2022/12/08 03:59:37;;;;;;;20.08;12.55;;;;;;;6.70;100.00;95729.72;4948617;28;20109;-43
2022/12/08 04:02:05;;;;;;;22.58;13.10;;;;;;;6.84;100.00;95727.47;4956079;28;20443;-41
2022/12/08 04:04:34;;;;;;;18.08;12.27;;;;;;;6.73;100.00;95727.63;4951328;28;20075;-48
2022/12/08 04:07:03;;;;;;;18.90;12.77;;;;;;;6.67;100.00;95725.56;4949882;28;20070;-48
2022/12/08 04:09:31;;;;;;;20.48;12.85;;;;;;;6.46;100.00;95730.13;4956339;28;20125;-47
2022/12/08 04:12:00;;;;;;;22.30;13.48;;;;;;;6.78;100.00;95722.81;4959233;28;20086;-43
2022/12/08 04:14:29;;;;;;;20.60;12.53;;;;;;;6.93;100.00;95720.59;4953442;28;20090;-42
2022/12/08 04:16:57;;;;;;;21.95;12.88;;;;;;;7.05;100.00;95716.00;4970075;28;20079;-45
2022/12/08 04:19:25;;;;;;;19.60;12.57;;;;;;;6.96;100.00;95717.69;4957637;28;20101;-44
2022/12/08 04:21:54;;;;;;;21.13;13.75;;;;;;;6.93;100.00;95709.28;4956457;28;20078;-44
2022/12/08 04:24:22;;;;;;;20.95;12.80;;;;;;;6.59;100.00;95718.41;4951110;28;20329;-46
2022/12/08 04:26:50;;;;;;;21.17;12.48;;;;;;;6.95;100.00;95712.56;4954221;28;20089;-43
2022/12/08 04:29:20;;;;;;;24.60;13.23;;;;;;;6.85;100.00;95723.09;4959720;28;20074;-40
2022/12/08 04:31:48;;;;;;;20.13;12.93;;;;;;;6.71;100.00;95724.34;4954247;28;20079;-45
2022/12/08 04:34:16;;;;;;;22.85;13.45;;;;;;;6.98;100.00;95714.91;4958787;28;20450;-45
2022/12/08 04:36:44;;;;;;;20.92;13.20;;;;;;;6.68;100.00;95708.06;4951273;28;20102;-45
2022/12/08 04:39:13;;;;;;;24.00;13.52;;;;;;;6.86;100.00;95701.97;4957865;28;20089;-43
2022/12/08 04:41:41;;;;;;;24.02;12.63;;;;;;;6.89;100.00;95701.69;4957787;28;20078;-42
2022/12/08 04:44:09;;;;;;;22.63;13.38;;;;;;;6.96;100.00;95712.44;4959961;28;20062;-44
2022/12/08 04:46:39;;;;;;;18.73;12.30;;;;;;;6.97;100.00;95700.16;4955648;28;20570;-44
2022/12/08 04:49:11;;;;;;;19.17;11.80;;;;;;;6.86;100.00;95707.22;4950543;28;20079;-43
2022/12/08 04:51:39;;;;;;;16.88;11.27;;;;;;;6.82;100.00;95694.53;4954719;28;20078;-43
2022/12/08 04:54:08;;;;;;;17.85;12.07;;;;;;;6.16;100.00;95697.88;4957045;28;20075;-48
2022/12/08 04:56:36;;;;;;;24.23;13.77;;;;;;;6.49;100.00;95706.28;4953534;28;20067;-42
2022/12/08 04:59:04;;;;;;;21.02;13.10;;;;;;;6.75;100.00;95712.63;4945137;28;20063;-46
2022/12/08 05:01:33;;;;;;;21.63;13.10;;;;;;;6.68;100.00;95706.28;4963690;28;20075;-43
2022/12/08 05:04:03;;;;;;;22.88;13.07;;;;;;;6.50;100.00;95711.38;4949563;28;20063;-40
2022/12/08 05:06:31;;;;;;;22.07;12.87;;;;;;;6.56;100.00;95707.38;4951052;28;20070;-43
2022/12/08 05:08:59;;;;;;;22.80;12.88;;;;;;;6.75;100.00;95703.94;4955646;28;20481;-40
2022/12/08 05:11:27;;;;;;;19.70;12.27;;;;;;;6.61;100.00;95703.38;4952234;28;20071;-45
2022/12/08 05:13:56;;;;;;;18.83;11.63;;;;;;;6.59;100.00;95707.91;4951494;28;20279;-42
2022/12/08 05:16:24;;;;;;;18.67;11.30;;;;;;;6.21;100.00;95719.22;4954615;28;20097;-45
2022/12/08 05:18:52;;;;;;;18.88;12.15;;;;;;;6.33;100.00;95712.91;4955447;28;20087;-47
2022/12/08 05:21:22;;;;;;;25.38;13.00;;;;;;;6.30;100.00;95714.97;4952912;28;20043;-44
2022/12/08 05:23:50;;;;;;;23.17;13.87;;;;;;;6.32;100.00;95715.63;4954106;28;20463;-45
2022/12/08 05:26:19;;;;;;;21.40;13.25;;;;;;;6.44;100.00;95714.56;4954608;28;20070;-45
2022/12/08 05:28:47;;;;;;;21.15;12.77;;;;;;;6.58;100.00;95708.91;4951674;28;20483;-46
2022/12/08 05:31:16;;;;;;;19.73;12.75;;;;;;;6.62;100.00;95707.66;4954899;28;20082;-42
2022/12/08 05:33:45;;;;;;;21.05;13.25;;;;;;;6.68;100.00;95705.47;4957048;28;20075;-47
2022/12/08 05:36:15;;;;;;;22.15;14.20;;;;;;;6.56;100.00;95697.72;4949673;28;20565;-42
2022/12/08 05:38:45;;;;;;;21.88;13.80;;;;;;;6.73;100.00;95693.56;4959778;28;20082;-41
2022/12/08 05:41:14;;;;;;;24.20;14.30;;;;;;;6.82;100.00;95694.53;4947131;28;20526;-47
2022/12/08 05:43:42;;;;;;;21.10;13.43;;;;;;;6.86;100.00;95695.91;4950502;28;20526;-46
2022/12/08 05:46:11;;;;;;;21.67;13.30;;;;;;;6.88;100.00;95694.81;4946001;28;20081;-41
2022/12/08 05:48:40;;;;;;;21.23;13.52;;;;;;;6.50;100.00;95689.59;4954827;28;20082;-43
2022/12/08 05:51:18;;;;;;;21.77;13.27;;;;;;;6.60;100.00;95696.47;4947498;28;20519;-45
2022/12/08 05:53:50;;;;;;;20.98;13.38;;;;;;;6.85;100.00;95695.09;4943321;29;20067;-43
2022/12/08 05:56:19;;;;;;;26.75;14.63;;;;;;;6.56;100.00;95687.25;4955334;28;20474;-44
2022/12/08 05:58:48;;;;;;;20.77;13.75;;;;;;;6.84;100.00;95687.34;4949272;28;20078;-45
2022/12/08 06:01:20;;;;;;;24.48;13.77;;;;;;;6.95;100.00;95686.34;4939984;28;20090;-44
2022/12/08 06:03:49;;;;;;;28.08;15.25;;;;;;;7.00;100.00;95684.16;4952280;28;20090;-47
2022/12/08 06:06:17;;;;;;;26.67;15.60;;;;;;;6.89;100.00;95685.97;4944984;28;20087;-44
2022/12/08 06:08:45;;;;;;;26.80;15.32;;;;;;;6.65;100.00;95691.66;4955266;28;20087;-43
2022/12/08 06:11:19;;;;;;;25.40;15.43;;;;;;;6.43;100.00;95686.69;4955092;28;20062;-46
2022/12/08 06:13:48;;;;;;;25.25;14.00;;;;;;;6.05;100.00;95690.13;4948990;28;20548;-43
2022/12/08 06:16:16;;;;;;;23.17;13.57;;;;;;;5.95;100.00;95687.47;4951653;28;20101;-44
2022/12/08 06:18:45;;;;;;;23.20;14.23;;;;;;;5.98;100.00;95678.53;4950144;28;20077;-43
2022/12/08 06:21:14;;;;;;;26.02;13.93;;;;;;;6.08;100.00;95682.00;4956906;28;20079;-42
2022/12/08 06:23:43;;;;;;;23.00;14.05;;;;;;;6.33;100.00;95684.09;4954448;28;20094;-44
2022/12/08 06:26:14;;;;;;;20.90;13.52;;;;;;;6.58;100.00;95690.56;4948647;28;20079;-40
2022/12/08 06:28:43;;;;;;;23.10;14.45;;;;;;;6.56;100.00;95684.63;4952500;28;20079;-48
2022/12/08 06:31:15;;;;;;;23.13;14.73;;;;;;;6.68;100.00;95679.25;4952941;28;20078;-43
2022/12/08 06:33:44;;;;;;;22.83;14.20;;;;;;;6.67;100.00;95691.50;4955147;28;20066;-45
2022/12/08 06:36:14;;;;;;;22.63;14.50;;;;;;;6.75;100.00;95678.56;4947486;28;20078;-51
2022/12/08 06:38:42;;;;;;;27.55;15.68;;;;;;;6.05;100.00;95680.47;4956754;28;20110;-44
2022/12/08 06:41:12;;;;;;;23.05;13.95;;;;;;;6.15;100.00;95680.47;4948888;28;20078;-42
2022/12/08 06:43:41;;;;;;;20.80;12.90;;;;;;;6.12;100.00;95681.56;4970468;28;20071;-42
2022/12/08 06:46:13;;;;;;;21.23;13.35;;;;;;;5.67;100.00;95681.19;4952488;28;20083;-45
2022/12/08 06:48:41;;;;;;;23.42;13.80;;;;;;;5.75;100.00;95670.91;4952226;28;20163;-41
2022/12/08 06:51:11;;;;;;;20.23;12.98;;;;;;;6.23;100.00;95672.78;4948694;28;20094;-43
2022/12/08 06:53:40;;;;;;;21.45;14.10;;;;;;;6.42;100.00;95675.41;4948485;28;20083;-48
2022/12/08 06:56:09;;;;;;;22.73;14.15;;;;;;;6.55;100.00;95677.75;4948022;28;20083;-40
2022/12/08 06:58:37;;;;;;;26.67;15.52;;;;;;;6.63;100.00;95677.03;4954105;28;20090;-40
2022/12/08 07:01:07;;;;;;;27.52;15.30;;;;;;;6.59;100.00;95680.91;4955285;28;20086;-45
2022/12/08 07:03:38;;;;;;;23.23;13.48;;;;;;;6.48;100.00;95681.88;4947691;28;20087;-47
2022/12/08 07:06:07;;;;;;;24.50;14.73;;;;;;;6.65;100.00;95685.59;4948832;28;20082;-44
2022/12/08 07:08:35;;;;;;;19.67;13.35;;;;;;;6.40;100.00;95694.81;4950312;28;20530;-41
2022/12/08 07:11:07;;;;;;;22.67;13.88;;;;;;;6.55;100.00;95692.63;4956964;28;20472;-49
2022/12/08 07:13:35;;;;;;;25.40;13.80;;;;;;;5.98;100.00;95681.97;4947609;28;20145;-42
2022/12/08 07:16:06;;;;;;;21.98;14.02;;;;;;;6.01;100.00;95686.13;4949052;28;20082;-43
2022/12/08 07:18:34;;;;;;;22.60;14.05;;;;;;;5.90;100.00;95677.41;4949294;28;20078;-41
2022/12/08 07:21:05;;;;;;;20.27;13.25;;;;;;;5.98;100.00;95681.16;4956309;28;20097;-48
2022/12/08 07:23:34;;;;;;;21.15;14.10;;;;;;;6.42;100.00;95687.66;4952340;28;20074;-43
2022/12/08 07:26:02;;;;;;;21.85;13.98;;;;;;;6.46;100.00;95688.22;4956200;28;20474;-45
2022/12/08 07:28:31;;;;;;;24.58;14.63;;;;;;;6.44;100.00;95692.78;4946528;28;20082;-45
2022/12/08 07:31:00;;;;;;;20.65;12.90;;;;;;;6.07;100.00;95707.34;4949086;28;20083;-44
2022/12/08 07:33:28;;;;;;;22.65;14.60;;;;;;;6.45;100.00;95691.81;4958080;28;20086;-43
2022/12/08 07:35:57;;;;;;;24.98;14.50;;;;;;;6.25;100.00;95689.16;4953370;28;20082;-44
2022/12/08 07:38:27;;;;;;;21.70;13.93;;;;;;;6.45;100.00;95689.19;4956718;28;20486;-46
2022/12/08 07:40:56;;;;;;;22.10;14.23;;;;;;;5.71;100.00;95690.41;4950495;28;20070;-49
2022/12/08 07:43:24;;;;;;;23.10;13.43;;;;;;;6.09;100.00;95691.50;4950571;28;20566;-49
2022/12/08 07:45:52;;;;;;;20.75;13.75;;;;;;;6.67;100.00;95691.50;4948831;28;20071;-46
2022/12/08 07:48:20;;;;;;;21.02;13.05;;;;;;;6.85;100.00;95691.66;4952101;28;20074;-47
2022/12/08 07:50:49;;;;;;;20.73;12.75;;;;;;;6.88;100.00;95693.94;4944191;28;20212;-42
2022/12/08 07:53:17;;;;;;;20.90;13.60;;;;;;;7.18;100.00;95685.06;4944239;28;20090;-42
2022/12/08 07:55:47;;;;;;;21.45;13.57;;;;;;;7.13;100.00;95692.53;4949963;28;20082;-43
2022/12/08 07:58:15;;;;;;;22.30;13.73;;;;;;;7.00;100.00;95697.25;4954738;28;20086;-43
2022/12/08 08:00:44;;;;;;;20.00;13.30;;;;;;;7.00;100.00;95700.69;4949923;28;20086;-42
2022/12/08 08:03:12;;;;;;;22.70;14.02;;;;;;;7.34;100.00;95693.16;4950705;28;20083;-46
2022/12/08 08:05:42;;;;;;;19.50;13.07;;;;;;;7.48;100.00;95697.09;4947221;28;20078;-49
2022/12/08 08:08:10;;;;;;;19.73;13.02;;;;;;;7.49;100.00;95698.75;4955753;28;20557;-45
2022/12/08 08:10:39;;;;;;;24.15;15.10;;;;;;;7.32;100.00;95692.47;4950653;28;20094;-49
2022/12/08 08:13:08;;;;;;;22.80;14.20;;;;;;;6.97;100.00;95692.28;4955100;28;20478;-40
2022/12/08 08:15:37;;;;;;;20.40;13.93;;;;;;;7.32;100.00;95684.59;4953822;28;20074;-49
2022/12/08 08:18:05;;;;;;;21.08;13.20;;;;;;;7.43;100.00;95685.38;4950900;28;20082;-42
2022/12/08 08:20:34;;;;;;;24.25;15.00;;;;;;;7.72;100.00;95686.09;4957800;28;20094;-41
2022/12/08 08:23:02;;;;;;;26.58;16.50;;;;;;;7.51;100.00;95693.38;4955902;28;20094;-47
2022/12/08 08:25:30;;;;;;;20.52;13.00;;;;;;;7.57;100.00;95693.63;4954201;28;20087;-48
2022/12/08 08:27:59;;;;;;;20.35;13.30;;;;;;;7.54;100.00;95693.09;4956708;28;20099;-45
2022/12/08 08:30:28;;;;;;;21.10;13.40;;;;;;;7.82;100.00;95686.03;4959764;28;20086;-49
2022/12/08 08:32:56;;;;;;;20.88;13.07;;;;;;;8.04;100.00;95684.81;4958295;28;20095;-41
2022/12/08 08:35:25;;;;;;;20.60;13.73;;;;;;;8.24;100.00;95688.13;4954678;28;20087;-46
2022/12/08 08:37:53;;;;;;;20.85;13.65;;;;;;;8.17;100.00;95690.53;4950785;28;20535;-47
2022/12/08 08:40:21;;;;;;;21.92;14.05;;;;;;;8.37;100.00;95685.97;4952586;28;20090;-45
2022/12/08 08:42:49;;;;;;;20.77;13.82;;;;;;;8.50;100.00;95681.19;4956119;28;20087;-45
2022/12/08 08:45:18;;;;;;;19.45;13.20;;;;;;;8.62;100.00;95683.59;4945953;28;20102;-46
2022/12/08 08:47:48;;;;;;;21.77;13.50;;;;;;;8.70;100.00;95681.81;4949590;28;21867;-44
2022/12/08 08:50:16;;;;;;;22.52;14.68;;;;;;;8.85;100.00;95678.69;4949120;28;20467;-43
2022/12/08 08:52:45;;;;;;;21.00;13.82;;;;;;;8.27;100.00;95680.78;4949346;28;20086;-42
2022/12/08 08:55:13;;;;;;;25.10;13.73;;;;;;;8.29;100.00;95678.84;4951688;28;20090;-43
2022/12/08 08:57:41;;;;;;;22.25;14.52;;;;;;;8.14;100.00;95675.06;4950434;28;20079;-43
2022/12/08 09:00:10;;;;;;;21.88;14.10;;;;;;;8.40;100.00;95679.63;4944889;28;20081;-43
2022/12/08 09:02:39;;;;;;;22.52;14.27;;;;;;;8.67;100.00;95686.56;4949761;28;22686;-46
2022/12/08 09:05:09;;;;;;;22.45;13.93;;;;;;;8.53;100.00;95686.16;4951089;28;20907;-42
2022/12/08 09:07:37;;;;;;;24.15;14.23;;;;;;;8.78;100.00;95688.97;4948567;28;20086;-41
2022/12/08 09:10:07;;;;;;;21.92;13.90;;;;;;;8.67;100.00;95689.19;4950313;28;20055;-43
2022/12/08 09:12:36;;;;;;;23.60;14.27;;;;;;;8.82;100.00;95692.13;4951923;28;20078;-43
2022/12/08 09:15:05;;;;;;;20.73;13.55;;;;;;;8.87;100.00;95692.47;4949090;28;20083;-43
2022/12/08 09:17:33;;;;;;;21.98;12.77;;;;;;;9.05;100.00;95685.41;4948262;28;20087;-45
2022/12/08 09:20:02;;;;;;;19.38;13.02;;;;;;;9.20;100.00;95673.31;4959796;28;20086;-42
2022/12/08 09:22:32;;;;;;;20.98;14.25;;;;;;;9.30;100.00;95675.03;4951604;28;20086;-43
2022/12/08 09:25:00;;;;;;;25.27;13.53;;;;;;;9.24;100.00;95679.09;4949195;28;20082;-44
2022/12/08 09:27:28;;;;;;;20.13;13.38;;;;;;;9.50;100.00;95666.75;4951283;28;20083;-46
2022/12/08 09:29:57;;;;;;;29.80;21.77;;;;;;;9.66;100.00;95673.03;4950216;28;20074;-46
2022/12/08 09:32:25;;;;;;;21.95;14.45;;;;;;;9.75;100.00;95666.84;4952708;28;20468;-42
2022/12/08 09:34:54;;;;;;;22.25;13.68;;;;;;;9.70;100.00;95669.09;4947661;28;20091;-40
2022/12/08 09:37:22;;;;;;;21.00;13.07;;;;;;;9.62;100.00;95674.34;4946805;28;20551;-44
2022/12/08 09:39:51;;;;;;;24.10;13.57;;;;;;;9.56;100.00;95662.63;4947096;28;20083;-49
2022/12/08 09:42:27;;;;;;;23.10;13.97;;;;;;;9.79;100.00;95654.19;4952324;28;20478;-41
2022/12/08 09:44:58;;;;;;;23.45;14.70;;;;;;;9.80;100.00;95656.63;4945656;28;20105;-45
2022/12/08 09:47:29;;;;;;;21.83;13.48;;;;;;;10.02;100.00;95652.59;4947633;28;20090;-47
2022/12/08 09:50:06;;;;;;;21.73;13.02;;;;;;;10.03;100.00;95651.63;4949300;28;20527;-44
2022/12/08 09:52:41;;;;;;;24.08;14.32;;;;;;;9.90;100.00;95654.69;4948610;28;20534;-47
2022/12/08 09:55:17;;;;;;;20.83;13.43;;;;;;;10.08;100.00;95644.06;4947722;28;20090;-46
2022/12/08 09:57:48;;;;;;;20.13;12.63;;;;;;;10.18;100.00;95643.91;4946383;28;20086;-44
2022/12/08 10:00:23;;;;;;;21.08;13.60;;;;;;;10.02;100.00;95638.63;4944004;28;20081;-44
2022/12/08 10:02:52;;;;;;;22.05;13.50;;;;;;;10.38;100.00;95631.28;4946976;28;20091;-45
2022/12/08 10:05:22;;;;;;;20.70;13.88;;;;;;;10.55;100.00;95632.13;4948581;28;20140;-51
2022/12/08 10:07:54;;;;;;;;;;;;;;;10.22;100.00;95622.34;4951427;28;20554;-46
2022/12/08 10:10:27;;;;;;;24.58;12.75;;;;;;;10.51;100.00;95621.06;4956758;28;20507;-44
2022/12/08 10:13:03;;;;;;;23.15;13.52;;;;;;;10.28;100.00;95615.63;4952298;28;20723;-45
2022/12/08 10:15:42;;;;;;;24.10;15.07;;;;;;;10.50;100.00;95613.34;4943855;28;20074;-45
2022/12/08 10:18:14;;;;;;;22.33;14.82;;;;;;;10.55;100.00;95606.56;4947658;28;20082;-41
2022/12/08 10:20:44;;;;;;;22.25;14.00;;;;;;;10.55;100.00;95605.75;4948694;28;20078;-40
2022/12/08 10:23:21;;;;;;;21.85;14.02;;;;;;;10.33;100.00;95600.16;4946777;28;20686;-47
2022/12/08 10:25:52;;;;;;;22.48;14.15;;;;;;;10.33;100.00;95596.69;4948498;28;20090;-42
2022/12/08 10:28:20;;;;;;;22.33;13.68;;;;;;;10.31;99.63;95599.47;4948120;28;20090;-44
2022/12/08 10:30:49;;;;;;;21.98;14.00;;;;;;;10.82;91.59;95596.66;4948613;28;20086;-46
2022/12/08 10:33:19;;;;;;;23.13;14.38;;;;;;;10.82;87.01;95601.94;4949229;28;20600;-44
2022/12/08 10:35:49;;;;;;;26.73;13.68;;;;;;;11.07;85.56;95592.97;4946584;28;20090;-41
2022/12/08 10:38:21;;;;;;;22.10;13.05;;;;;;;11.09;77.12;95585.72;4945317;28;20079;-50
2022/12/08 10:40:52;;;;;;;20.08;13.10;;;;;;;11.23;74.09;95589.47;4945869;28;20086;-39
2022/12/08 10:43:22;;;;;;;22.48;13.73;;;;;;;11.38;74.91;95581.66;4949646;28;20075;-44
2022/12/08 10:45:51;;;;;;;23.25;13.32;;;;;;;11.27;73.85;95577.59;4948231;28;20079;-41
2022/12/08 10:48:21;;;;;;;20.33;13.75;;;;;;;11.31;73.41;95575.44;4945952;28;20067;-42
2022/12/08 10:50:54;;;;;;;22.80;14.63;;;;;;;11.30;76.65;95582.53;4948698;28;20082;-44
2022/12/08 10:53:24;;;;;;;23.17;14.65;;;;;;;11.25;78.88;95568.19;4943988;28;20067;-48
2022/12/08 10:56:06;;;;;;;20.70;13.63;;;;;;;11.32;86.74;95564.72;4948303;28;20091;-49
2022/12/08 10:58:35;;;;;;;21.23;13.70;;;;;;;11.38;85.66;95560.53;4949743;28;20454;-45
2022/12/08 11:01:08;;;;;;;21.15;13.63;;;;;;;11.31;79.49;95559.59;4944438;28;20081;-42
2022/12/08 11:03:40;;;;;;;26.08;14.73;;;;;;;11.49;77.65;95556.69;4948561;28;20098;-50
2022/12/08 11:06:13;;;;;;;25.70;15.80;;;;;;;11.06;85.69;95550.94;4949168;28;20090;-43
2022/12/08 11:08:48;;;;;;;22.75;14.27;;;;;;;11.27;79.80;95545.09;4943648;28;20067;-41
2022/12/08 11:11:18;;;;;;;20.27;13.77;;;;;;;11.49;77.10;95541.69;4941597;28;20067;-44
2022/12/08 11:13:54;;;;;;;22.45;14.20;;;;;;;11.22;81.46;95542.13;4947306;28;20067;-45
2022/12/08 11:16:23;;;;;;;23.23;14.55;;;;;;;10.80;86.38;95546.72;4947711;28;20079;-43
2022/12/08 11:18:56;;;;;;;23.25;14.18;;;;;;;10.85;88.51;95546.22;4947882;28;20518;-44
2022/12/08 11:21:35;;;;;;;24.02;14.65;;;;;;;11.27;84.19;95538.00;4943083;28;20063;-42
2022/12/08 11:24:22;;;;;;;21.10;13.60;;;;;;;11.10;86.30;95541.69;4947513;28;20335;-42
2022/12/08 11:26:54;;;;;;;21.75;13.90;;;;;;;11.02;85.01;95537.28;4945534;28;20082;-43
2022/12/08 11:29:23;;;;;;;19.58;13.18;;;;;;;11.00;85.41;95533.16;4943729;28;20093;-45
2022/12/08 11:31:53;;;;;;;21.98;13.27;;;;;;;10.71;86.51;95525.81;4941676;28;20068;-43
2022/12/08 11:34:30;;;;;;;23.55;14.10;;;;;;;10.98;82.46;95528.06;4959407;28;20083;-41
2022/12/08 11:36:59;;;;;;;23.63;13.23;;;;;;;10.92;82.03;95526.91;4948165;28;20063;-44